• Join FlightAware (Why Join?)
  • Login
  • US Flag 
12:59AM EDT


 

Airport Tracker/Info


-or-


 

Live Flight TrackerFlight Track Log ✈ FLG3735 ✈ 26-Apr-2013 ✈ KDTW - KALB

Flight Track Log - Related Links

Times and Time Zones

All times are in EDT time to prevent confusion due to time zone crossing. See the FLG3735 flight status page for this flight to view local times or setup timezone preferences in your user account.

Time Position Orientation Groundspeed Altitude Reporting Facility
EDT Latitude Longitude Course Direction KTS MPH feet Rate Location/Type
09:48PM 42.2039 -83.3528 82° East 139 160 1,600  Level Cleveland Center
09:49PM 42.1392 -83.3525 180° South 217 250 4,300 2,280 Climbing Cleveland Center
09:50PM 42.0725 -83.3497 178° South 271 312 6,800 2,700 Climbing Cleveland Center
09:51PM 42.0022 -83.3244 165° South 291 335 9,800 2,160 Climbing Cleveland Center
09:52PM 42.3167 -82.7493 82° East  Level FlightAware Approximate
09:52PM 42.0011 -83.1958 91° East 349 402 11,400  Level Cleveland Center
09:53PM 42.3321 -82.5952 82° East  Level FlightAware Approximate
09:53PM 42.0597 -83.0861 54° Northeast 344 396 12,600  Level Cleveland Center
09:54PM 42.1228 -82.9656 55° Northeast 361 415 13,000 900 Climbing Cleveland Center
09:55PM 42.1858 -82.8361 57° Northeast 387 445 14,500 1,620 Climbing Cleveland Center
09:56PM 42.2239 -82.6944 70° East 400 460 16,300 1,740 Climbing Cleveland Center
09:57PM 42.2247 -82.5375 90° East 388 447 18,000 1,200 Climbing Cleveland Center
09:58PM 42.2231 -82.3806 91° East 400 460 18,700 840 Climbing Cleveland Center
09:59PM 42.2214 -82.2178 91° East 414 476 19,700 900 Climbing Cleveland Center
10:00PM 42.2233 -82.0664 89° East 438 504 20,600 960 Climbing Cleveland Center
10:01PM 42.2256 -81.9011 89° East 438 504 21,700 900 Climbing Cleveland Center
10:02PM 42.2231 -81.7328 91° East 443 510 22,400 600 Climbing Cleveland Center
10:03PM 42.2225 -81.5589 90° East 448 516 22,900 540 Climbing Cleveland Center
10:04PM 42.2239 -81.3850 89° East 456 525 23,500 600 Climbing Cleveland Center
10:05PM 42.2208 -81.1944 91° East 465 535 24,200 660 Climbing Cleveland Center
10:06PM 42.2197 -81.0206 90° East 465 535 24,900 660 Climbing Cleveland Center
10:07PM 42.2181 -80.8383 91° East 465 535 25,600 720 Climbing Cleveland Center
10:08PM 42.2164 -80.6644 91° East 465 535 26,400 660 Climbing Cleveland Center
10:09PM 42.2164 -80.4906 90° East 465 535 27,000 300 Climbing Cleveland Center
10:10PM 42.2119 -80.3111 92° East 465 535 27,000  Level Cleveland Center
10:11PM 42.2092 -80.1264 91° East 479 551 27,000  Level Cleveland Center
10:12PM 42.2064 -79.9608 91° East 484 557 27,000  Level Cleveland Center
10:13PM 42.2031 -79.7731 91° East 498 573 27,000  Level Cleveland Center
10:14PM 42.1994 -79.5881 91° East 498 573 27,000  Level Cleveland Center
10:15PM 42.1956 -79.3978 92° East 498 573 27,000  Level Cleveland Center
10:16PM 42.1917 -79.2128 92° East 493 567 27,000  Level Cleveland Center
10:17PM 42.1997 -79.0275 87° East 493 567 27,000  Level Cleveland Center
10:18PM 42.2242 -78.8475 80° East 493 567 27,000  Level Cleveland Center
10:19PM 42.2486 -78.6731 79° East 481 554 27,000  Level Cleveland Center
10:20PM 42.2683 -78.4983 81° East 481 554 27,000  Level Cleveland Center
10:21PM 42.2922 -78.3208 80° East 481 554 27,000  Level Cleveland Center
10:22PM 42.3114 -78.1458 82° East 481 554 27,000  Level Cleveland Center
10:23PM 42.3364 -77.9511 80° East 481 554 27,000  Level Cleveland Center
10:24PM 42.3572 -77.7761 81° East 481 554 27,000  Level Cleveland Center
10:25PM 42.3778 -77.5981 81° East 481 554 27,000  Level Cleveland Center
10:27PM 42.4047 -77.3447 82° East 485 558 27,000  Level Boston Center
10:28PM 42.4247 -77.1719 81° East 479 551 27,000  Level Boston Center
10:29PM 42.4447 -76.9906 81° East 479 551 27,000  Level Boston Center
10:30PM 42.4642 -76.8117 82° East 479 551 27,000  Level Boston Center
10:31PM 42.4833 -76.6356 82° East 479 551 27,000  Level Boston Center
10:32PM 42.5022 -76.4564 82° East 479 551 27,000  Level Boston Center
10:33PM 42.5211 -76.2772 82° East 479 551 27,000  Level Boston Center
10:34PM 42.5394 -76.0981 82° East 479 551 27,000  Level Boston Center
10:35PM 42.5575 -75.9214 82° East 479 551 27,000  Level Boston Center
10:36PM 42.5756 -75.7392 82° East 479 551 27,000 -360 Level Boston Center
10:37PM 42.5931 -75.5567 83° East 479 551 26,300 -1,680 Descending Boston Center
10:38PM 42.6103 -75.3797 82° East 479 551 23,700 -2,580 Descending Boston Center
10:39PM 42.6272 -75.2056 82° East 479 551 21,200 -2,520 Descending Boston Center
10:40PM 42.6417 -75.0397 83° East 468 539 18,700 -2,220 Descending Boston Center
10:41PM 42.6556 -74.8764 83° East 444 511 16,800 -2,340 Descending Boston Center
10:41PM 42.6589 -74.8203 85° East 423 487 15,700 -3,000 Descending Boston Center
10:42PM 42.6697 -74.7047 83° East 426 490 13,800 -2,700 Descending Boston Center
10:42PM 42.6747 -74.6569 82° East 400 460 13,000 -2,340 Descending Boston Center
10:43PM 42.6808 -74.5583 85° East 399 459 11,500 -1,980 Descending Boston Center
10:43PM 42.6878 -74.5161 77° East 375 432 11,000 -900 Descending Boston Center
10:44PM 42.6789 -74.4369 99° East 345 397 10,600 -720 Descending Boston Center
10:44PM 42.6753 -74.4000 98° East 292 336 10,300 -1,200 Descending Boston Center
10:45PM 42.6597 -74.3261 106° East 308 354 9,400 -1,500 Descending Boston Center
10:45PM 42.6542 -74.2919 102° East 280 322 8,800 -1,500 Descending Boston Center
10:46PM 42.6408 -74.2211 104° East 282 325 7,900 -1,380 Descending Boston Center
10:46PM 42.6328 -74.1897 109° East 280 322 7,400 -1,320 Descending Boston Center
10:47PM 42.6214 -74.1244 103° East 277 319 6,600 -1,380 Descending Boston Center
10:47PM 42.6133 -74.0961 111° Southeast 267 307 6,000 -1,440 Descending Boston Center
10:48PM 42.6019 -74.0308 103° East 270 311 5,200 -1,320 Descending Boston Center
10:48PM 42.6022 -74.0000 89° East 248 285 4,700 -1,380 Descending Boston Center
10:49PM 42.6033 -73.9239 89° East 249 287 3,600 -1,200 Descending Boston Center
10:50PM 42.6169 -73.8450 77° East 222 255 2,500 -660 Descending Boston Center
10:51PM 42.6383 -73.7864 64° Northeast 197 227 2,300 -240 Descending Boston Center